Time;durP1;ratioP1;P1;durP2;ratioP2;P2;SDS_P1;SDS_P2;PMS_P1;PMS_P2;Temp;Humidity;BMP_temperature;BMP_pressure;BME280_temperature;BME280_humidity;BME280_pressure;Samples;Min_cycle;Max_cycle;Signal;HPM_P1;HPM_P2
2024/01/04 00:01:24;;;;;;;1.90;0.80;;;;;;;3.36;100.00;98807.56;7362495;19;20425;-40
2024/01/04 00:03:53;;;;;;;4.10;1.40;;;;;;;3.35;100.00;98785.41;7383807;19;20879;-40
2024/01/04 00:06:23;;;;;;;1.73;0.70;;;;;;;3.25;100.00;98780.75;7362289;19;20947;-41
2024/01/04 00:08:53;;;;;;;4.50;0.73;;;;;;;3.26;100.00;98774.84;7383169;19;20419;-40
2024/01/04 00:11:22;;;;;;;3.33;0.90;;;;;;;3.27;100.00;98763.00;7364731;19;20403;-41
2024/01/04 00:13:52;;;;;;;3.57;1.30;;;;;;;3.29;100.00;98752.03;7384246;19;21099;-43
2024/01/04 00:16:25;;;;;;;2.27;0.80;;;;;;;3.27;100.00;98746.00;7364391;19;20422;-40
2024/01/04 00:18:54;;;;;;;2.40;0.77;;;;;;;3.23;100.00;98747.56;7384945;19;20434;-42
2024/01/04 00:21:24;;;;;;;1.30;0.80;;;;;;;3.27;100.00;98734.94;7360728;19;20436;-40
2024/01/04 00:23:54;;;;;;;2.77;1.63;;;;;;;3.28;100.00;98731.59;7382491;19;20438;-41
2024/01/04 00:26:23;;;;;;;4.33;1.30;;;;;;;3.23;100.00;98739.06;7362037;19;20437;-41
2024/01/04 00:28:53;;;;;;;3.57;1.33;;;;;;;3.22;100.00;98733.09;7382958;19;20459;-41
2024/01/04 00:31:25;;;;;;;4.57;1.20;;;;;;;3.24;100.00;98745.91;7362287;19;20935;-40
2024/01/04 00:33:55;;;;;;;1.57;0.90;;;;;;;3.20;100.00;98754.22;7383015;19;20459;-40
2024/01/04 00:36:24;;;;;;;3.23;1.00;;;;;;;3.20;100.00;98779.72;7362642;19;20408;-43
2024/01/04 00:38:54;;;;;;;1.90;1.13;;;;;;;3.19;100.00;98796.66;7389301;19;20836;-41
2024/01/04 00:41:24;;;;;;;6.40;0.80;;;;;;;3.22;100.00;98826.50;7367803;19;20779;-40
2024/01/04 00:43:53;;;;;;;3.67;0.93;;;;;;;3.19;100.00;98849.34;7389595;19;20435;-41
2024/01/04 00:46:26;;;;;;;2.57;0.73;;;;;;;3.19;100.00;98903.72;7368427;19;20407;-42
2024/01/04 00:48:55;;;;;;;3.63;0.80;;;;;;;3.20;100.00;98927.53;7388970;19;20742;-41
2024/01/04 00:51:25;;;;;;;5.20;1.00;;;;;;;3.23;100.00;98930.22;7368576;19;20962;-40
2024/01/04 00:53:55;;;;;;;3.60;1.20;;;;;;;3.18;100.00;98960.59;7390351;19;20419;-42
2024/01/04 00:56:24;;;;;;;5.37;1.10;;;;;;;3.15;100.00;98968.13;7368588;19;20403;-41
2024/01/04 00:58:54;;;;;;;6.70;1.70;;;;;;;3.10;100.00;98969.59;7388193;19;20407;-42
2024/01/04 01:01:26;;;;;;;1.47;0.60;;;;;;;3.03;100.00;98955.72;7367121;19;20408;-40
2024/01/04 01:03:57;;;;;;;3.80;0.83;;;;;;;3.07;100.00;98967.78;7388769;19;20438;-41
2024/01/04 01:06:27;;;;;;;5.00;0.60;;;;;;;3.05;100.00;98963.44;7367146;19;21698;-41
2024/01/04 01:08:56;;;;;;;13.50;1.00;;;;;;;3.07;100.00;98954.16;7388575;19;20521;-40
2024/01/04 01:11:26;;;;;;;3.43;0.70;;;;;;;3.04;100.00;98944.75;7368742;19;20432;-42
2024/01/04 01:13:56;;;;;;;3.10;0.70;;;;;;;3.08;100.00;98935.56;7388535;19;20443;-41
2024/01/04 01:16:28;;;;;;;3.10;0.70;;;;;;;3.08;100.00;98923.66;7368199;19;20399;-43
2024/01/04 01:18:57;;;;;;;6.30;1.00;;;;;;;3.01;100.00;98921.66;7387531;19;20499;-40
2024/01/04 01:21:27;;;;;;;4.80;1.70;;;;;;;3.04;100.00;98905.63;7368000;19;20408;-41
2024/01/04 01:23:57;;;;;;;4.77;1.20;;;;;;;3.03;100.00;98889.47;7388495;19;20439;-41
2024/01/04 01:26:26;;;;;;;7.23;1.00;;;;;;;3.04;100.00;98881.03;7367934;19;20443;-42
2024/01/04 01:28:56;;;;;;;1.43;0.70;;;;;;;3.03;100.00;98868.22;7386800;19;20404;-40
2024/01/04 01:31:28;;;;;;;1.77;0.60;;;;;;;3.01;100.00;98869.81;7367919;19;20395;-40
2024/01/04 01:33:58;;;;;;;3.57;0.90;;;;;;;2.94;100.00;98866.16;7392494;19;21095;-43
2024/01/04 01:36:27;;;;;;;2.80;0.57;;;;;;;2.96;100.00;98860.31;7374403;19;20404;-41
2024/01/04 01:38:57;;;;;;;2.27;0.50;;;;;;;2.90;100.00;98841.34;7396009;19;20402;-40
2024/01/04 01:41:27;;;;;;;2.03;0.80;;;;;;;2.90;100.00;98819.31;7373092;19;20411;-41
2024/01/04 01:43:56;;;;;;;1.70;0.50;;;;;;;2.83;100.00;98809.66;7394413;19;20514;-41
2024/01/04 01:46:29;;;;;;;2.77;0.53;;;;;;;2.91;100.00;98810.84;7374768;19;20416;-42
2024/01/04 01:48:58;;;;;;;7.80;0.80;;;;;;;2.91;100.00;98812.50;7392566;19;20428;-40
2024/01/04 01:51:28;;;;;;;3.10;0.60;;;;;;;2.87;100.00;98797.94;7376369;19;20997;-40
2024/01/04 01:53:58;;;;;;;1.50;0.50;;;;;;;2.89;100.00;98798.84;7395329;19;20468;-40
2024/01/04 01:56:28;;;;;;;3.50;1.00;;;;;;;2.96;100.00;98785.56;7374394;19;20828;-41
2024/01/04 01:58:58;;;;;;;3.00;0.70;;;;;;;2.97;100.00;98772.00;7394151;19;20959;-42
2024/01/04 02:01:30;;;;;;;3.40;0.73;;;;;;;2.96;100.00;98744.78;7374541;19;20408;-41
2024/01/04 02:04:00;;;;;;;1.40;0.60;;;;;;;2.95;100.00;98722.66;7395082;19;20451;-42
2024/01/04 02:06:30;;;;;;;1.70;0.60;;;;;;;2.90;100.00;98707.22;7374199;19;20943;-41
2024/01/04 02:08:59;;;;;;;1.70;0.53;;;;;;;2.89;100.00;98687.66;7394198;19;20408;-41
2024/01/04 02:11:29;;;;;;;2.53;0.60;;;;;;;2.88;100.00;98680.81;7374464;19;20754;-41
2024/01/04 02:13:59;;;;;;;1.83;0.50;;;;;;;2.85;100.00;98652.66;7394665;19;20451;-41
2024/01/04 02:16:31;;;;;;;1.50;0.53;;;;;;;2.85;100.00;98639.91;7368440;19;20835;-40
2024/01/04 02:19:00;;;;;;;1.30;0.50;;;;;;;2.81;100.00;98626.19;7392482;19;20396;-41
2024/01/04 02:21:30;;;;;;;3.77;0.50;;;;;;;2.77;100.00;98591.22;7374887;19;20420;-42
2024/01/04 02:24:02;;;;;;;1.33;0.43;;;;;;;2.80;100.00;98570.97;7393383;19;20439;-42
2024/01/04 02:26:32;;;;;;;2.43;0.53;;;;;;;2.75;100.00;98541.91;7373520;19;21403;-42
2024/01/04 02:29:02;;;;;;;2.53;0.60;;;;;;;2.75;100.00;98531.72;7393813;19;20437;-42
2024/01/04 02:31:31;;;;;;;2.43;0.70;;;;;;;2.80;100.00;98527.69;7373711;19;20753;-40
2024/01/04 02:34:01;;;;;;;1.80;0.80;;;;;;;2.85;100.00;98515.09;7393471;19;20510;-41
2024/01/04 02:36:31;;;;;;;1.97;0.80;;;;;;;2.83;100.00;98509.09;7374639;19;20410;-41
2024/01/04 02:39:04;;;;;;;2.10;0.90;;;;;;;2.76;100.00;98491.88;7393019;19;20408;-41
2024/01/04 02:41:34;;;;;;;5.83;0.90;;;;;;;2.69;100.00;98478.03;7371699;19;20376;-41
2024/01/04 02:44:03;;;;;;;1.80;0.73;;;;;;;2.72;100.00;98460.28;7393034;19;20511;-41
2024/01/04 02:46:33;;;;;;;1.53;0.50;;;;;;;2.67;100.00;98437.22;7373311;19;20384;-42
2024/01/04 02:49:02;;;;;;;1.30;0.40;;;;;;;2.59;100.00;98422.47;7392985;19;20414;-42
2024/01/04 02:51:32;;;;;;;1.87;0.50;;;;;;;2.56;100.00;98419.00;7373031;19;20919;-41
2024/01/04 02:54:04;;;;;;;4.43;0.80;;;;;;;2.52;100.00;98412.06;7393805;19;20824;-41
2024/01/04 02:56:34;;;;;;;1.50;0.50;;;;;;;2.47;100.00;98415.25;7373158;19;20399;-41
2024/01/04 02:59:04;;;;;;;1.97;0.70;;;;;;;2.45;100.00;98424.53;7394676;19;20420;-41
2024/01/04 03:01:33;;;;;;;2.50;0.50;;;;;;;2.45;100.00;98425.38;7372449;19;20377;-40
2024/01/04 03:04:03;;;;;;;1.60;0.40;;;;;;;2.38;100.00;98419.22;7393393;19;20443;-42
2024/01/04 03:06:33;;;;;;;1.40;0.43;;;;;;;2.34;100.00;98426.66;7373973;19;20392;-41
2024/01/04 03:09:06;;;;;;;7.27;1.33;;;;;;;2.29;100.00;98445.19;7392961;19;20412;-41
2024/01/04 03:11:35;;;;;;;1.83;0.60;;;;;;;2.30;100.00;98438.41;7372312;19;20415;-40
2024/01/04 03:14:05;;;;;;;3.37;0.67;;;;;;;2.27;100.00;98451.03;7393238;19;20460;-40
2024/01/04 03:16:36;;;;;;;3.07;0.77;;;;;;;2.24;100.00;98459.41;7372323;19;20474;-43
2024/01/04 03:19:05;;;;;;;2.00;0.50;;;;;;;2.19;100.00;98465.13;7392656;19;20488;-40
2024/01/04 03:21:35;;;;;;;2.13;0.70;;;;;;;2.20;100.00;98469.41;7372368;19;20415;-40
2024/01/04 03:24:08;;;;;;;2.27;0.60;;;;;;;2.19;100.00;98475.31;7392834;19;20814;-41
2024/01/04 03:26:37;;;;;;;2.13;0.63;;;;;;;2.14;100.00;98495.47;7372008;19;20423;-41
2024/01/04 03:29:07;;;;;;;2.10;0.80;;;;;;;2.15;100.00;98517.56;7392017;19;20483;-41
2024/01/04 03:31:36;;;;;;;2.67;0.70;;;;;;;2.10;100.00;98530.09;7371531;19;20427;-40
2024/01/04 03:34:06;;;;;;;2.90;0.70;;;;;;;2.06;100.00;98542.66;7392326;19;20447;-44
2024/01/04 03:36:36;;;;;;;1.70;0.90;;;;;;;2.04;100.00;98562.06;7372273;19;20443;-40
2024/01/04 03:39:09;;;;;;;1.80;1.00;;;;;;;1.92;100.00;98563.31;7392175;19;20389;-41
2024/01/04 03:41:38;;;;;;;1.97;1.00;;;;;;;1.89;100.00;98586.94;7367757;19;20415;-41
2024/01/04 03:44:08;;;;;;;2.00;0.83;;;;;;;1.87;100.00;98608.03;7392352;19;20471;-42
2024/01/04 03:46:37;;;;;;;3.00;0.80;;;;;;;1.80;100.00;98611.97;7372543;19;20437;-40
2024/01/04 03:49:07;;;;;;;1.60;0.70;;;;;;;1.71;100.00;98637.91;7391963;19;21016;-40
2024/01/04 03:51:37;;;;;;;1.80;0.80;;;;;;;1.65;100.00;98672.34;7371789;19;20435;-43
2024/01/04 03:54:09;;;;;;;2.03;0.70;;;;;;;1.53;100.00;98706.59;7392729;19;20446;-40
2024/01/04 03:56:38;;;;;;;3.60;0.73;;;;;;;1.47;100.00;98746.97;7369570;19;20419;-41
2024/01/04 03:59:08;;;;;;;3.23;0.93;;;;;;;1.40;100.00;98794.13;7390898;19;20403;-40
2024/01/04 04:01:44;;;;;;;1.57;0.73;;;;;;;1.29;100.00;98796.13;7371295;19;20436;-41
2024/01/04 04:04:14;;;;;;;2.57;1.23;;;;;;;1.26;100.00;98790.91;7393003;19;20460;-41
2024/01/04 04:06:44;;;;;;;2.80;1.30;;;;;;;1.27;100.00;98837.53;7368413;19;20431;-41
2024/01/04 04:09:18;;;;;;;2.27;1.33;;;;;;;1.25;100.00;98845.09;7391259;19;20465;-41
2024/01/04 04:11:49;;;;;;;1.70;1.00;;;;;;;1.21;100.00;98861.84;7370175;19;20975;-42
2024/01/04 04:14:18;;;;;;;3.00;1.33;;;;;;;1.17;100.00;98880.28;7398762;19;20518;-40
2024/01/04 04:16:48;;;;;;;2.00;0.87;;;;;;;1.08;100.00;98885.78;7372651;19;21291;-42
2024/01/04 04:19:18;;;;;;;2.90;1.20;;;;;;;1.07;100.00;98870.44;7401036;19;20414;-41
2024/01/04 04:21:47;;;;;;;2.27;0.77;;;;;;;1.04;100.00;98865.22;7377312;19;20422;-43
2024/01/04 04:24:19;;;;;;;4.93;1.30;;;;;;;1.04;100.00;98865.22;7398375;19;20514;-43
2024/01/04 04:26:49;;;;;;;2.10;1.10;;;;;;;0.99;100.00;98866.66;7374837;19;20417;-40
2024/01/04 04:29:19;;;;;;;1.63;1.00;;;;;;;1.00;100.00;98868.41;7397291;19;20406;-41
2024/01/04 04:31:50;;;;;;;3.60;1.00;;;;;;;1.00;100.00;98886.19;7375240;19;20406;-41
2024/01/04 04:34:20;;;;;;;1.87;1.10;;;;;;;0.97;100.00;98898.75;7398945;19;20511;-40
2024/01/04 04:36:50;;;;;;;1.80;1.10;;;;;;;0.89;100.00;98916.13;7374918;19;20423;-40
2024/01/04 04:39:22;;;;;;;2.03;0.93;;;;;;;0.82;100.00;98904.75;7397964;19;20411;-40
2024/01/04 04:41:52;;;;;;;2.33;0.90;;;;;;;0.82;100.00;98887.00;7373092;19;20409;-40
2024/01/04 04:44:22;;;;;;;2.00;1.20;;;;;;;0.80;100.00;98881.84;7399020;19;20476;-41
2024/01/04 04:46:52;;;;;;;2.23;1.20;;;;;;;0.67;100.00;98895.56;7374750;19;20402;-40
2024/01/04 04:49:21;;;;;;;2.27;1.07;;;;;;;0.62;100.00;98893.63;7397213;19;20415;-40
2024/01/04 04:51:51;;;;;;;3.17;1.20;;;;;;;0.57;100.00;98902.66;7374341;19;20398;-41
2024/01/04 04:54:24;;;;;;;3.33;1.40;;;;;;;0.47;100.00;98936.81;7397237;19;20958;-40
2024/01/04 04:56:54;;;;;;;3.77;1.50;;;;;;;0.52;100.00;98961.66;7374272;19;20419;-40
2024/01/04 04:59:24;;;;;;;2.80;1.83;;;;;;;0.48;100.00;98994.41;7397586;19;20768;-41
2024/01/04 05:01:53;;;;;;;3.50;1.93;;;;;;;0.42;100.00;99025.41;7376174;19;20412;-42
2024/01/04 05:04:23;;;;;;;4.53;2.80;;;;;;;0.32;100.00;99044.34;7396948;19;20855;-41
2024/01/04 05:06:52;;;;;;;5.13;2.53;;;;;;;0.30;100.00;99075.47;7376592;19;20415;-41
2024/01/04 05:09:25;;;;;;;4.40;2.70;;;;;;;0.25;100.00;99100.56;7397098;19;20395;-42
2024/01/04 05:11:54;;;;;;;3.00;2.00;;;;;;;0.25;100.00;99124.28;7374077;19;20423;-41
2024/01/04 05:14:24;;;;;;;4.27;2.67;;;;;;;0.21;100.00;99157.03;7397629;19;20204;-41
2024/01/04 05:16:54;;;;;;;3.27;2.40;;;;;;;0.16;100.00;99174.53;7373901;19;20423;-41
2024/01/04 05:19:24;;;;;;;2.73;1.57;;;;;;;0.06;100.00;99193.38;7396190;19;20424;-41
2024/01/04 05:21:54;;;;;;;3.70;2.33;;;;;;;0.08;100.00;99190.94;7373692;19;20431;-41
2024/01/04 05:24:27;;;;;;;3.47;1.60;;;;;;;0.04;100.00;99210.16;7393559;19;20976;-42
2024/01/04 05:26:56;;;;;;;2.80;2.20;;;;;;;0.06;100.00;99233.94;7370218;19;20415;-40
2024/01/04 05:29:27;;;;;;;5.43;2.85;;;;;;;0.02;100.00;99257.41;7396753;19;20404;-41
2024/01/04 05:31:56;;;;;;;4.27;2.47;;;;;;;-0.01;100.00;99267.34;7373740;19;20262;-41
2024/01/04 05:34:29;;;;;;;7.30;2.90;;;;;;;-0.04;100.00;99298.47;7397408;19;20451;-41
2024/01/04 05:36:59;;;;;;;4.30;2.22;;;;;;;-0.10;100.00;99299.78;7375166;19;20691;-41
2024/01/04 05:39:31;;;;;;;3.03;2.00;;;;;;;-0.10;100.00;99317.53;7398698;19;20214;-41
2024/01/04 05:42:00;;;;;;;3.38;1.90;;;;;;;-0.12;100.00;99326.69;7371930;19;20506;-41
2024/01/04 05:44:30;;;;;;;3.53;2.17;;;;;;;-0.11;100.00;99343.66;7396284;19;20678;-41
2024/01/04 05:46:59;;;;;;;4.50;1.93;;;;;;;-0.14;100.00;99342.66;7373008;19;20194;-42
2024/01/04 05:49:29;;;;;;;2.55;2.00;;;;;;;-0.16;100.00;99348.44;7395818;19;20487;-41
2024/01/04 05:51:59;;;;;;;3.15;2.08;;;;;;;-0.12;100.00;99362.22;7373062;19;20190;-43
2024/01/04 05:54:31;;;;;;;3.00;1.75;;;;;;;-0.16;100.00;99369.59;7397623;19;20190;-41
2024/01/04 05:57:01;;;;;;;2.90;2.20;;;;;;;-0.11;100.00;99376.63;7372821;19;20199;-42
2024/01/04 05:59:31;;;;;;;2.13;1.65;;;;;;;-0.16;100.00;99384.81;7395344;19;20936;-41
2024/01/04 06:02:00;;;;;;;3.10;1.90;;;;;;;-0.20;100.00;99398.06;7372757;19;20198;-42
2024/01/04 06:04:30;;;;;;;2.97;1.10;;;;;;;-0.24;100.00;99413.91;7396830;19;20436;-41
2024/01/04 06:07:00;;;;;;;1.98;1.33;;;;;;;-0.30;100.00;99403.38;7372476;19;20275;-41
2024/01/04 06:09:32;;;;;;;2.67;1.60;;;;;;;-0.30;100.00;99410.97;7395478;19;20164;-41
2024/01/04 06:12:02;;;;;;;2.50;1.38;;;;;;;-0.28;100.00;99419.53;7372735;19;20678;-41
2024/01/04 06:14:32;;;;;;;4.20;1.80;;;;;;;-0.27;100.00;99418.75;7396044;19;20178;-41
2024/01/04 06:17:02;;;;;;;2.05;1.20;;;;;;;-0.32;100.00;99427.72;7372906;19;20198;-41
2024/01/04 06:19:32;;;;;;;2.05;1.20;;;;;;;-0.33;100.00;99439.53;7395548;19;20561;-40
2024/01/04 06:22:02;;;;;;;3.47;1.60;;;;;;;-0.31;100.00;99442.16;7372117;19;20194;-42
2024/01/04 06:24:34;;;;;;;3.38;1.42;;;;;;;-0.38;100.00;99443.41;7395933;19;20179;-41
2024/01/04 06:27:03;;;;;;;2.38;1.15;;;;;;;-0.45;100.00;99446.34;7372473;19;20242;-40
2024/01/04 06:29:33;;;;;;;2.08;1.13;;;;;;;-0.53;100.00;99447.50;7394526;19;20147;-40
2024/01/04 06:32:03;;;;;;;2.55;1.23;;;;;;;-0.58;100.00;99470.00;7375281;19;20223;-41
2024/01/04 06:34:32;;;;;;;1.90;1.30;;;;;;;-0.59;100.00;99474.19;7394526;19;20199;-41
2024/01/04 06:37:03;;;;;;;2.50;1.20;;;;;;;-0.61;100.00;99492.63;7373779;19;20201;-41
2024/01/04 06:39:35;;;;;;;2.65;1.40;;;;;;;-0.62;100.00;99499.31;7394775;19;20139;-41
2024/01/04 06:42:05;;;;;;;2.80;1.73;;;;;;;-0.64;100.00;99517.72;7371822;19;20289;-40
2024/01/04 06:44:35;;;;;;;2.72;1.90;;;;;;;-0.63;100.00;99525.44;7394894;19;20178;-41
2024/01/04 06:47:15;;;;;;;2.78;2.00;;;;;;;-0.69;100.00;99533.53;7375183;19;20265;-41
2024/01/04 06:49:45;;;;;;;1.70;1.00;;;;;;;-0.64;100.00;99541.44;7393348;19;20174;-41
2024/01/04 06:52:15;;;;;;;7.25;1.83;;;;;;;-0.58;100.00;99535.88;7373332;19;20194;-41
2024/01/04 06:54:47;;;;;;;5.05;1.60;;;;;;;-0.59;100.00;99551.88;7394280;19;20181;-42
2024/01/04 06:57:16;;;;;;;2.30;1.20;;;;;;;-0.61;100.00;99558.50;7372162;19;20197;-40
2024/01/04 06:59:46;;;;;;;2.55;1.30;;;;;;;-0.65;100.00;99564.13;7392769;19;20632;-41
2024/01/04 07:02:16;;;;;;;2.20;1.25;;;;;;;-0.73;100.00;99561.94;7373117;19;20202;-41
2024/01/04 07:04:46;;;;;;;1.90;1.20;;;;;;;-0.75;100.00;99575.28;7393317;19;20175;-41
2024/01/04 07:07:15;;;;;;;1.98;1.48;;;;;;;-0.72;100.00;99568.78;7372959;19;20205;-41
2024/01/04 07:09:48;;;;;;;2.22;1.10;;;;;;;-0.70;100.00;99576.47;7392934;19;20141;-40
2024/01/04 07:12:18;;;;;;;1.80;1.10;;;;;;;-0.71;100.00;99580.66;7372846;19;20261;-41
2024/01/04 07:14:47;;;;;;;2.10;1.27;;;;;;;-0.70;100.00;99592.56;7393340;19;20170;-41
2024/01/04 07:17:17;;;;;;;1.70;0.90;;;;;;;-0.75;100.00;99586.31;7372236;19;20194;-43
2024/01/04 07:19:47;;;;;;;3.80;1.40;;;;;;;-0.75;100.00;99600.63;7394358;19;20202;-41
2024/01/04 07:22:17;;;;;;;5.10;1.42;;;;;;;-0.72;100.00;99609.31;7372364;19;20194;-40
2024/01/04 07:24:49;;;;;;;7.88;1.50;;;;;;;-0.71;100.00;99605.13;7392292;19;20185;-40
2024/01/04 07:27:19;;;;;;;4.60;1.42;;;;;;;-0.70;100.00;99599.28;7372118;19;20750;-40
2024/01/04 07:29:49;;;;;;;4.25;1.38;;;;;;;-0.71;100.00;99600.94;7392463;19;20146;-41
2024/01/04 07:32:19;;;;;;;4.97;1.27;;;;;;;-0.69;100.00;99604.47;7372102;19;20208;-41
2024/01/04 07:34:48;;;;;;;2.22;1.30;;;;;;;-0.63;100.00;99590.44;7393098;19;20182;-41
2024/01/04 07:37:32;;;;;;;8.23;1.80;;;;;;;-0.60;100.00;99585.59;7371828;19;20194;-41
2024/01/04 07:40:05;;;;;;;5.30;1.50;;;;;;;-0.59;100.00;99583.16;7394869;19;20153;-41
2024/01/04 07:42:34;;;;;;;3.35;1.58;;;;;;;-0.57;100.00;99573.09;7370204;19;20198;-40
2024/01/04 07:45:04;;;;;;;1.73;1.13;;;;;;;-0.61;100.00;99563.56;7392416;19;20782;-41
2024/01/04 07:47:36;;;;;;;4.00;1.40;;;;;;;-0.59;100.00;99556.94;7368164;19;20198;-41
2024/01/04 07:50:08;;;;;;;2.65;1.40;;;;;;;-0.54;100.00;99550.53;7392987;19;20510;-43
2024/01/04 07:52:38;;;;;;;5.05;2.15;;;;;;;-0.52;100.00;99541.34;7372220;19;20197;-41
2024/01/04 07:55:11;;;;;;;2.13;1.25;;;;;;;-0.56;100.00;99536.88;7393404;19;20178;-41
2024/01/04 07:57:41;;;;;;;2.15;1.05;;;;;;;-0.63;100.00;99514.41;7369301;19;20194;-43
2024/01/04 08:00:11;;;;;;;1.45;0.85;;;;;;;-0.66;100.00;99510.06;7393203;19;20147;-41
2024/01/04 08:02:42;;;;;;;2.90;1.30;;;;;;;-0.64;100.00;99497.47;7369875;19;20196;-41
2024/01/04 08:05:13;;;;;;;2.08;1.25;;;;;;;-0.65;100.00;99488.09;7393267;19;20174;-40
2024/01/04 08:07:43;;;;;;;2.28;1.30;;;;;;;-0.62;100.00;99486.66;7369714;19;20270;-45
2024/01/04 08:10:16;;;;;;;3.65;1.40;;;;;;;-0.55;100.00;99470.22;7391119;19;20561;-40
2024/01/04 08:12:45;;;;;;;3.78;1.33;;;;;;;-0.59;100.00;99475.84;7369893;19;20190;-41
2024/01/04 08:15:15;;;;;;;6.95;1.20;;;;;;;-0.61;100.00;99505.28;7392804;19;20661;-41
2024/01/04 08:17:45;;;;;;;2.92;1.20;;;;;;;-0.55;100.00;99501.47;7369442;19;20269;-43
2024/01/04 08:20:18;;;;;;;1.60;0.90;;;;;;;-0.61;100.00;99500.22;7392765;19;20147;-41
2024/01/04 08:22:48;;;;;;;1.50;0.98;;;;;;;-0.58;100.00;99496.22;7369348;19;20194;-41
2024/01/04 08:25:20;;;;;;;4.45;1.88;;;;;;;-0.54;100.00;99497.31;7392091;19;20149;-43
2024/01/04 08:27:49;;;;;;;2.38;0.90;;;;;;;-0.57;100.00;99500.50;7366834;19;20879;-41
2024/01/04 08:30:19;;;;;;;6.80;1.50;;;;;;;-0.55;100.00;99506.53;7389164;19;20142;-41
2024/01/04 08:32:49;;;;;;;4.22;1.52;;;;;;;-0.59;100.00;99503.72;7370089;19;20207;-40
2024/01/04 08:35:19;;;;;;;4.05;1.60;;;;;;;-0.48;100.00;99512.03;7391740;19;20151;-40
2024/01/04 08:37:51;;;;;;;2.50;1.10;;;;;;;-0.50;100.00;99496.75;7368948;19;20182;-42
2024/01/04 08:40:24;;;;;;;2.83;1.30;;;;;;;-0.52;100.00;99499.94;7394024;19;20214;-40
2024/01/04 08:42:53;;;;;;;1.55;1.02;;;;;;;-0.48;100.00;99491.75;7367351;19;20667;-41
2024/01/04 08:45:23;;;;;;;1.85;0.90;;;;;;;-0.47;100.00;99493.53;7391880;19;20143;-40
2024/01/04 08:47:53;;;;;;;3.60;2.20;;;;;;;-0.41;100.00;99479.59;7367951;19;20278;-41
2024/01/04 08:50:23;;;;;;;3.30;1.50;;;;;;;-0.50;100.00;99489.13;7390828;19;20149;-41
2024/01/04 08:52:53;;;;;;;3.20;1.48;;;;;;;-0.56;100.00;99493.81;7369017;19;20194;-41
2024/01/04 08:55:25;;;;;;;3.10;1.33;;;;;;;-0.58;100.00;99502.94;7391179;19;20202;-42
2024/01/04 08:57:55;;;;;;;4.90;1.13;;;;;;;-0.53;100.00;99499.06;7369868;19;20423;-41
2024/01/04 09:00:25;;;;;;;2.35;1.00;;;;;;;-0.54;100.00;99497.31;7398474;19;20150;-41
2024/01/04 09:02:54;;;;;;;3.42;1.17;;;;;;;-0.55;100.00;99487.94;7367855;19;20215;-40
2024/01/04 09:05:24;;;;;;;2.22;0.82;;;;;;;-0.58;100.00;99488.63;7390559;19;20143;-42
2024/01/04 09:07:55;;;;;;;3.72;2.10;;;;;;;-0.55;100.00;99490.47;7365892;19;20354;-39
2024/01/04 09:10:28;;;;;;;3.88;1.10;;;;;;;-0.50;100.00;99495.84;7390568;19;20620;-40
2024/01/04 09:12:58;;;;;;;3.40;1.37;;;;;;;-0.37;100.00;99497.53;7368812;19;20864;-39
2024/01/04 09:15:27;;;;;;;2.70;1.00;;;;;;;-0.44;100.00;99498.78;7391019;19;20415;-41
2024/01/04 09:17:57;;;;;;;3.92;1.00;;;;;;;-0.44;100.00;99499.69;7367836;19;20431;-39
2024/01/04 09:20:27;;;;;;;1.95;1.05;;;;;;;-0.42;100.00;99510.78;7391088;19;20210;-41
2024/01/04 09:22:57;;;;;;;3.88;1.20;;;;;;;-0.32;100.00;99524.94;7367613;19;20190;-39
2024/01/04 09:25:30;;;;;;;2.90;1.20;;;;;;;-0.36;100.00;99527.19;7389931;19;20139;-40
2024/01/04 09:27:59;;;;;;;4.10;1.77;;;;;;;-0.35;100.00;99541.59;7367336;19;20684;-39
2024/01/04 09:30:30;;;;;;;1.83;0.88;;;;;;;-0.43;100.00;99538.56;7388721;19;20231;-40
2024/01/04 09:33:00;;;;;;;2.60;0.90;;;;;;;-0.41;100.00;99547.16;7368952;19;20274;-42
2024/01/04 09:35:30;;;;;;;2.00;1.13;;;;;;;-0.51;100.00;99550.72;7390127;19;20147;-40
2024/01/04 09:38:00;;;;;;;3.35;1.20;;;;;;;-0.47;100.00;99559.44;7367506;19;20506;-40
2024/01/04 09:40:32;;;;;;;3.78;1.50;;;;;;;-0.50;100.00;99555.03;7389285;19;20247;-40
2024/01/04 09:43:03;;;;;;;2.67;1.10;;;;;;;-0.56;100.00;99569.81;7366683;19;20269;-40
2024/01/04 09:45:34;;;;;;;9.02;1.60;;;;;;;-0.49;100.00;99577.06;7389599;19;20572;-39
2024/01/04 09:48:06;;;;;;;3.58;1.00;;;;;;;-0.42;100.00;99596.06;7365958;19;20888;-39
2024/01/04 09:50:53;;;;;;;1.75;1.15;;;;;;;-0.49;100.00;99597.34;7388992;19;20610;-39
2024/01/04 09:53:22;;;;;;;1.63;0.90;;;;;;;-0.45;100.00;99599.28;7366903;19;20194;-40
2024/01/04 09:55:55;;;;;;;4.13;1.70;;;;;;;-0.49;100.00;99614.19;7391492;19;20171;-40
2024/01/04 09:58:26;;;;;;;1.80;1.00;;;;;;;-0.56;100.00;99610.38;7367160;19;20194;-40
2024/01/04 10:00:57;;;;;;;4.38;1.35;;;;;;;-0.62;100.00;99623.47;7389111;19;20778;-43
2024/01/04 10:03:27;;;;;;;3.83;1.23;;;;;;;-0.65;100.00;99648.63;7320995;19;20206;-40
2024/01/04 10:05:58;;;;;;;2.35;1.00;;;;;;;-0.63;100.00;99658.84;7388500;19;21037;-40
2024/01/04 10:08:33;;;;;;;4.38;0.93;;;;;;;-0.59;100.00;99681.09;7366740;19;20194;-40
2024/01/04 10:11:16;;;;;;;5.82;1.35;;;;;;;-0.55;100.00;99696.63;7388316;19;20163;-40
2024/01/04 10:13:46;;;;;;;2.00;0.98;;;;;;;-0.58;100.00;99713.25;7367330;19;20985;-40
2024/01/04 10:16:15;;;;;;;3.33;1.30;;;;;;;-0.63;100.00;99729.78;7368717;19;20618;-40
2024/01/04 10:18:45;;;;;;;3.07;1.33;;;;;;;-0.57;100.00;99736.19;7387535;19;20791;-39
2024/01/04 10:21:15;;;;;;;2.47;1.30;;;;;;;-0.60;100.00;99750.28;7366559;19;20940;-39
2024/01/04 10:23:45;;;;;;;3.53;1.00;;;;;;;-0.63;100.00;99752.59;7386512;19;20800;-42
2024/01/04 10:26:18;;;;;;;7.00;1.25;;;;;;;-0.63;100.00;99757.66;7367067;19;20470;-41
2024/01/04 10:28:49;;;;;;;2.20;1.07;;;;;;;-0.75;100.00;99761.13;7388775;19;20160;-39
2024/01/04 10:31:18;;;;;;;5.40;0.93;;;;;;;-0.56;100.00;99762.41;7367701;19;22342;-39
2024/01/04 10:33:48;;;;;;;3.13;1.20;;;;;;;-0.59;100.00;99762.19;7386936;19;20166;-40
2024/01/04 10:36:18;;;;;;;4.57;1.30;;;;;;;-0.49;100.00;99763.72;7366518;19;20511;-41
2024/01/04 10:38:48;;;;;;;4.45;1.00;;;;;;;-0.60;100.00;99773.09;7385496;19;20596;-41
2024/01/04 10:41:21;;;;;;;6.10;1.10;;;;;;;-0.74;100.00;99755.28;7364685;19;20165;-40
2024/01/04 10:43:51;;;;;;;2.80;1.33;;;;;;;-0.77;100.00;99751.66;7387024;19;20456;-39
2024/01/04 10:46:21;;;;;;;2.20;1.05;;;;;;;-0.78;100.00;99734.69;7366249;19;20227;-40
2024/01/04 10:48:50;;;;;;;1.98;1.10;;;;;;;-0.75;100.00;99717.16;7386406;19;20143;-40
2024/01/04 10:51:20;;;;;;;6.03;1.15;;;;;;;-0.55;100.00;99698.28;7365464;19;20135;-39
2024/01/04 10:53:51;;;;;;;2.70;1.10;;;;;;;-0.51;100.00;99695.16;7386816;19;20170;-40
2024/01/04 10:56:24;;;;;;;4.40;1.10;;;;;;;-0.50;100.00;99675.78;7364727;19;20142;-39
2024/01/04 10:58:54;;;;;;;2.88;1.25;;;;;;;-0.56;100.00;99676.25;7384171;19;20512;-40
2024/01/04 11:01:25;;;;;;;3.03;1.20;;;;;;;-0.59;100.00;99681.09;7364096;19;20628;-40
2024/01/04 11:03:56;;;;;;;3.75;1.88;;;;;;;-0.71;100.00;99666.81;7384377;19;20199;-41
2024/01/04 11:06:26;;;;;;;4.25;1.00;;;;;;;-0.59;100.00;99660.81;7365705;19;20175;-40
2024/01/04 11:08:57;;;;;;;2.80;1.40;;;;;;;-0.60;100.00;99665.03;7384641;19;20163;-40
2024/01/04 11:11:29;;;;;;;1.88;0.70;;;;;;;-0.54;100.00;99667.09;7364574;19;20525;-40
2024/01/04 11:13:59;;;;;;;3.03;1.30;;;;;;;-0.50;100.00;99668.19;7393198;19;20182;-39
2024/01/04 11:16:42;;;;;;;2.55;1.52;;;;;;;-0.68;100.00;99667.03;7372333;19;20206;-40
2024/01/04 11:19:18;;;;;;;3.25;1.30;;;;;;;-0.62;100.00;99660.63;7395019;19;20158;-41
2024/01/04 11:22:18;;;;;;;7.40;1.45;;;;;;;-0.49;100.00;99670.84;7365701;19;20206;-41
2024/01/04 11:24:56;;;;;;;3.15;1.50;;;;;;;-0.50;100.00;99666.53;7385213;19;20174;-39
2024/01/04 11:27:30;;;;;;;3.70;1.02;;;;;;;-0.48;100.00;99669.16;7363022;19;20655;-41
2024/01/04 11:30:01;;;;;;;3.13;1.30;;;;;;;-0.47;100.00;99671.81;7386462;19;20504;-40
2024/01/04 11:32:31;;;;;;;1.77;1.10;;;;;;;-0.41;100.00;99678.97;7361250;19;20403;-42
2024/01/04 11:35:05;;;;;;;3.73;1.37;;;;;;;-0.44;100.00;99671.13;7386219;19;20530;-42
2024/01/04 11:37:58;;;;;;;4.80;1.23;;;;;;;-0.44;100.00;99656.81;7361408;19;20420;-40
2024/01/04 11:40:29;;;;;;;4.20;1.43;;;;;;;-0.53;100.00;99643.50;7384252;19;20983;-40
2024/01/04 11:43:05;;;;;;;6.03;2.33;;;;;;;-0.52;100.00;99657.94;7361732;19;20430;-40
2024/01/04 11:45:35;;;;;;;6.18;2.03;;;;;;;-0.57;100.00;99659.25;7384353;19;20150;-39